Flight NumberQSM338I Date17.01.2021
Departure AirportWADD Arrival AirportRPVP
Departure Time3.36Arrival Time6.19
Pilot In CommandSaeed Yousefi Block Time2.70 Hours
Pilot Rating100 % AircraftEP-QIF [ A340-300 ]


Distance1,132.00 Nm. Passengers356
Fuel Used23,582 Kg. Cargo12766 Kg
Expense Details Income Details
Fuel Cost25,778 v$Ticket Sales89,000 v$
Pilot Salary20,284 v$ Cargo income16,432.00 v$
Crew Salary1,780 v$ Bonus24,148 v$
Gross Profit124,605 v$ ( 3,115,125 v$ )

Client Versionv2.4.0 Max Simrate1
Flight Critique Pilot CommentsRPVP 171800Z 27008KT 9999 -RA SCT019 OVC080 25/24 Q1007 RMK A2974 - ILS27